Bezoek onze andere website:

Template documentation
and downloads

And another site



METAR rapporten vliegvelden

   
EBAW - Antwerp
Gewijzigd: 21-07-2018 15:20
Helder  
Helder  
   Wind: NW 25.9 km/h
Wind: NW 25.9 km/h
Temperatuur: 25°C
Dauwpunt: 12°C
Vochtigheid: 44%
Barometer: 1012 hPa
Zicht: meer dan 10 km
Bewolking: Helder
EBAW 211320Z 31014KT CAVOK 25/12 Q1012 NOSIG
EBLG - Li├Ęge
Gewijzigd: 21-07-2018 15:20
Helder  
Helder  
   Wind: Westen 9.3 km/h
Wind: Westen 9.3 km/h
Temperatuur: 27°C
Dauwpunt: 11°C
Vochtigheid: 37%
Barometer: 1012 hPa
Zicht: meer dan 10 km
Bewolking: Helder
EBLG 211320Z 27005KT 230V310 CAVOK 27/11 Q1012 NOSIG
EBCV - Mons/Bergen
Gewijzigd: 21-07-2018 08:25
Verouderd
  
  
   Wind: Noorden 7.4 km/h
Wind: Noorden 7.4 km/h
Temperatuur: 18°C
Dauwpunt: 15°C
Vochtigheid: 83%
Barometer: 1012 hPa
EBCV 210625Z AUTO 35004KT //// /// 18/15 Q1012
EHBK - Maastricht
Gewijzigd: 21-07-2018 15:25
Gedeeltelijk bewolkt  
Gedeeltelijk bewolkt  
   Wind: Noorden 5.6 km/h
Wind: Noorden 5.6 km/h
Temperatuur: 29°C
Dauwpunt: 12°C
Vochtigheid: 35%
Barometer: 1011 hPa
Bewolking: Gedeeltelijk bewolkt
Zicht: meer dan 10 km
Bewolking: Gedeeltelijk bewolkt
EHBK 211325Z AUTO 36003KT 9999 NSC 29/12 Q1011 NOSIG
ELLX - Luxemburg
Gewijzigd: 21-07-2018 15:20
Gedeeltelijk bewolkt  
Gedeeltelijk bewolkt  
   Wind: WZW 16.7 km/h
Wind: WZW 16.7 km/h
Temperatuur: 24°C
Dauwpunt: 14°C
Vochtigheid: 54%
Barometer: 1013 hPa
Bewolking: Gedeeltelijk bewolkt
Zicht: meer dan 10 km
Bewolking: Gedeeltelijk bewolkt 3600 ft
ELLX 211320Z 24009KT 190V270 9999 SCT036 24/14 Q1013 NOSIG
EBOS - Oostende
Gewijzigd: 21-07-2018 15:20
Licht bewolkt  
Licht bewolkt  
   Wind: NNW 18.5 km/h
Wind: NNW 18.5 km/h
Temperatuur: 22°C
Dauwpunt: 14°C
Vochtigheid: 61%
Barometer: 1014 hPa
Bewolking: Licht bewolkt
Zicht: meer dan 10 km
Bewolking: Licht bewolkt 3500 ft
EBOS 211320Z 34010KT 9999 FEW035 22/14 Q1014 NOSIG

Script ontwikkeld door  Saratoga-weather.org Aangepast voor de template door  Weerstation Leuven